Time;durP1;ratioP1;P1;durP2;ratioP2;P2;SDS_P1;SDS_P2;PMS_P1;PMS_P2;Temp;Humidity;BMP_temperature;BMP_pressure;BME280_temperature;BME280_humidity;BME280_pressure;Samples;Min_cycle;Max_cycle;Signal;HPM_P1;HPM_P2
2021/03/09 00:01:49;;;;;;;14.40;8.95;;;16.80;51.10;;;;;;5051503;28;20029;-72
2021/03/09 00:04:15;;;;;;;11.45;8.98;;;16.80;51.00;;;;;;5051953;28;20027;-74
2021/03/09 00:06:40;;;;;;;12.98;8.93;;;16.70;51.00;;;;;;5051769;28;20405;-74
2021/03/09 00:09:06;;;;;;;13.20;9.52;;;16.70;50.90;;;;;;5033655;28;20017;-74
2021/03/09 00:11:32;;;;;;;14.80;10.65;;;16.70;50.90;;;;;;5051455;28;20493;-73
2021/03/09 00:13:57;;;;;;;13.40;10.18;;;16.70;50.90;;;;;;5051463;28;20017;-73
2021/03/09 00:16:23;;;;;;;12.70;9.77;;;16.60;50.80;;;;;;5051815;28;20563;-73
2021/03/09 00:18:48;;;;;;;14.30;9.13;;;16.60;50.80;;;;;;5051121;28;20052;-73
2021/03/09 00:21:14;;;;;;;15.07;10.23;;;16.60;50.90;;;;;;5051380;28;20047;-74
2021/03/09 00:23:39;;;;;;;15.32;10.95;;;16.60;51.00;;;;;;5052117;28;20029;-72
2021/03/09 00:26:05;;;;;;;15.57;9.63;;;16.50;50.90;;;;;;5050636;28;20072;-72
2021/03/09 00:28:31;;;;;;;12.95;9.90;;;16.50;50.80;;;;;;5051062;28;20028;-74
2021/03/09 00:30:56;;;;;;;13.35;9.40;;;16.50;50.80;;;;;;5051041;28;20036;-74
2021/03/09 00:33:22;;;;;;;14.30;9.98;;;16.50;50.90;;;;;;5033086;28;20025;-74
2021/03/09 00:35:47;;;;;;;12.95;9.32;;;16.50;50.90;;;;;;5051079;28;20044;-73
2021/03/09 00:38:13;;;;;;;12.68;9.93;;;16.50;51.00;;;;;;5051665;28;20021;-74
2021/03/09 00:40:39;;;;;;;16.65;10.15;;;16.50;50.90;;;;;;5050864;28;20129;-73
2021/03/09 00:43:04;;;;;;;11.95;8.82;;;16.40;50.90;;;;;;5050607;28;20518;-73
2021/03/09 00:45:30;;;;;;;13.85;10.35;;;16.40;50.90;;;;;;5051005;28;20041;-73
2021/03/09 00:47:55;;;;;;;13.35;9.25;;;16.40;51.00;;;;;;5050449;28;20370;-74
2021/03/09 00:50:21;;;;;;;12.98;9.52;;;16.40;50.90;;;;;;5050981;28;20044;-73
2021/03/09 00:52:47;;;;;;;12.55;9.73;;;16.40;50.90;;;;;;5051143;28;20021;-74
2021/03/09 00:55:13;;;;;;;13.70;9.30;;;16.40;50.90;;;;;;5051620;28;20512;-74
2021/03/09 00:57:38;;;;;;;14.82;9.75;;;16.40;51.00;;;;;;5052559;28;20021;-73
2021/03/09 01:00:06;;;;;;;17.67;10.10;;;16.30;50.90;;;;;;5054354;28;20079;-74
2021/03/09 01:02:31;;;;;;;13.23;9.52;;;16.30;50.90;;;;;;5037118;28;20033;-74
2021/03/09 01:04:57;;;;;;;15.02;9.45;;;16.30;50.90;;;;;;5054904;28;20039;-74
2021/03/09 01:07:23;;;;;;;14.13;10.07;;;16.30;50.90;;;;;;5054894;28;20025;-73
2021/03/09 01:09:48;;;;;;;12.52;9.63;;;16.20;50.80;;;;;;5036925;28;20025;-73
2021/03/09 01:12:14;;;;;;;12.70;9.18;;;16.30;50.90;;;;;;5055183;28;20116;-74
2021/03/09 01:14:39;;;;;;;14.90;10.13;;;16.30;50.90;;;;;;5054734;28;20486;-73
2021/03/09 01:17:05;;;;;;;12.77;9.18;;;16.20;50.90;;;;;;5054772;28;20029;-73
2021/03/09 01:19:31;;;;;;;12.70;9.50;;;16.20;50.90;;;;;;5054318;28;20029;-73
2021/03/09 01:21:56;;;;;;;12.55;9.65;;;16.20;50.80;;;;;;5036458;28;20045;-73
2021/03/09 01:24:22;;;;;;;13.85;9.57;;;16.20;50.80;;;;;;5055174;28;20032;-73
2021/03/09 01:26:48;;;;;;;14.00;9.95;;;16.20;50.80;;;;;;5054700;28;20510;-74
2021/03/09 01:29:13;;;;;;;15.88;9.68;;;16.20;50.90;;;;;;5054898;28;20512;-73
2021/03/09 01:31:39;;;;;;;14.90;9.50;;;16.20;50.80;;;;;;5054458;28;20060;-73
2021/03/09 01:34:04;;;;;;;15.52;10.15;;;16.10;50.80;;;;;;5054302;28;20025;-74
2021/03/09 01:36:30;;;;;;;13.38;10.13;;;16.10;50.80;;;;;;5054377;28;20079;-74
2021/03/09 01:38:56;;;;;;;12.68;10.15;;;16.10;50.90;;;;;;5054267;28;20033;-75
2021/03/09 01:41:21;;;;;;;14.48;10.73;;;16.10;50.90;;;;;;5053727;28;20036;-74
2021/03/09 01:43:47;;;;;;;13.88;10.30;;;16.00;50.90;;;;;;5035890;28;20473;-74
2021/03/09 01:46:15;;;;;;;13.90;9.73;;;16.00;50.80;;;;;;5054265;28;20032;-74
2021/03/09 01:48:45;;;;;;;13.52;10.05;;;16.00;51.40;;;;;;5053507;28;20033;-74
2021/03/09 01:51:19;;;;;;;14.02;10.38;;;16.00;50.90;;;;;;5054366;28;20025;-74
2021/03/09 01:53:46;;;;;;;15.45;11.00;;;16.00;50.80;;;;;;5054568;28;20028;-74
2021/03/09 01:56:13;;;;;;;15.40;11.38;;;16.00;50.90;;;;;;5054385;28;20473;-74
2021/03/09 01:58:47;;;;;;;14.88;10.32;;;16.00;50.90;;;;;;5054073;28;20495;-75
2021/03/09 02:01:13;;;;;;;15.02;11.18;;;16.00;50.80;;;;;;5053618;28;20041;-74
2021/03/09 02:03:38;;;;;;;12.75;10.00;;;16.00;50.90;;;;;;5054410;28;20477;-74
2021/03/09 02:06:04;;;;;;;12.68;9.57;;;15.90;50.90;;;;;;5053618;28;20037;-74
2021/03/09 02:08:31;;;;;;;13.60;9.85;;;15.90;50.90;;;;;;5053630;28;20017;-74
2021/03/09 02:10:57;;;;;;;13.63;10.23;;;15.90;50.80;;;;;;5054007;28;20029;-74
2021/03/09 02:13:39;;;;;;;13.70;10.20;;;15.90;50.90;;;;;;5053153;28;20025;-74
2021/03/09 02:16:20;;;;;;;17.42;10.77;;;15.90;51.00;;;;;;5043417;28;20033;-74
2021/03/09 02:18:54;;;;;;;14.95;10.60;;;15.90;51.00;;;;;;5053665;28;20021;-75
2021/03/09 02:21:48;;;;;;;13.20;10.15;;;15.80;50.90;;;;;;5053128;28;20037;-75
2021/03/09 02:24:38;;;;;;;13.13;9.77;;;15.80;50.90;;;;;;5053627;28;20507;-74
2021/03/09 02:27:48;;;;;;;12.40;9.48;;;15.80;50.90;;;;;;5053416;28;20033;-74
2021/03/09 02:30:21;;;;;;;14.02;9.98;;;15.80;50.90;;;;;;5010037;28;20543;-74
2021/03/09 02:33:09;;;;;;;14.77;10.40;;;15.80;51.00;;;;;;5052971;28;20032;-73
2021/03/09 02:35:40;;;;;;;16.73;10.95;;;15.80;51.00;;;;;;5028200;28;20036;-74
2021/03/09 02:38:08;;;;;;;13.30;10.02;;;15.80;51.00;;;;;;5053292;28;20507;-74
2021/03/09 02:40:34;;;;;;;15.25;10.43;;;15.80;51.10;;;;;;5033697;28;20041;-74
2021/03/09 02:43:11;;;;;;;12.82;10.65;;;15.70;51.00;;;;;;5052502;28;20033;-74
2021/03/09 02:45:38;;;;;;;14.18;10.65;;;15.70;51.00;;;;;;5053236;28;20488;-73
2021/03/09 02:48:06;;;;;;;15.00;10.60;;;15.70;51.00;;;;;;5052291;28;20063;-74
2021/03/09 02:50:33;;;;;;;17.40;11.43;;;15.70;51.00;;;;;;5035074;28;20029;-74
2021/03/09 02:53:06;;;;;;;13.95;10.48;;;15.70;51.10;;;;;;5052740;28;20044;-73
2021/03/09 02:55:33;;;;;;;16.15;11.27;;;15.70;51.00;;;;;;5052844;28;20404;-74
2021/03/09 02:57:59;;;;;;;14.07;10.20;;;15.70;51.00;;;;;;5053353;28;20446;-73
2021/03/09 03:00:25;;;;;;;14.20;10.57;;;15.70;51.00;;;;;;5052657;28;20033;-74
2021/03/09 03:02:51;;;;;;;14.00;10.55;;;15.60;51.00;;;;;;5052900;28;20040;-73
2021/03/09 03:05:18;;;;;;;15.82;9.80;;;15.60;51.00;;;;;;5053099;28;20025;-72
2021/03/09 03:07:45;;;;;;;14.90;10.48;;;15.60;51.00;;;;;;5052796;28;20108;-73
2021/03/09 03:10:14;;;;;;;16.10;11.13;;;15.60;51.00;;;;;;5034618;28;20029;-73
2021/03/09 03:12:41;;;;;;;13.77;10.02;;;15.60;51.00;;;;;;5051846;28;20051;-73
2021/03/09 03:15:09;;;;;;;14.48;9.50;;;15.60;51.30;;;;;;5052811;28;20020;-73
2021/03/09 03:17:36;;;;;;;16.65;11.43;;;15.60;51.00;;;;;;5052460;28;20384;-73
2021/03/09 03:20:06;;;;;;;16.50;10.63;;;15.60;51.10;;;;;;5050947;28;20040;-72
2021/03/09 03:22:32;;;;;;;13.32;9.90;;;15.60;51.00;;;;;;5052592;28;20021;-72
2021/03/09 03:25:01;;;;;;;16.17;11.52;;;15.60;51.10;;;;;;5052406;28;20028;-72
2021/03/09 03:27:26;;;;;;;13.60;10.60;;;15.60;51.00;;;;;;5034522;28;20029;-73
2021/03/09 03:29:52;;;;;;;12.95;9.80;;;15.60;51.00;;;;;;5052112;28;20029;-73
2021/03/09 03:32:18;;;;;;;13.15;10.20;;;15.60;51.00;;;;;;5052711;28;20025;-73
2021/03/09 03:34:44;;;;;;;14.40;11.02;;;15.50;51.00;;;;;;5052032;28;20033;-72
2021/03/09 03:37:11;;;;;;;13.30;9.57;;;15.60;51.30;;;;;;5052197;28;20025;-73
2021/03/09 03:39:37;;;;;;;12.68;9.25;;;15.60;51.10;;;;;;5052138;28;20520;-73
2021/03/09 03:42:03;;;;;;;13.73;9.20;;;15.50;51.10;;;;;;5051572;28;20029;-73
2021/03/09 03:44:28;;;;;;;14.30;10.40;;;15.60;51.10;;;;;;5034381;28;20023;-73
2021/03/09 03:46:54;;;;;;;13.48;10.43;;;15.50;51.10;;;;;;5052319;28;20043;-73
2021/03/09 03:49:19;;;;;;;14.80;9.82;;;15.50;51.10;;;;;;5051612;28;20039;-74
2021/03/09 03:51:51;;;;;;;12.82;9.85;;;15.50;51.10;;;;;;5051847;28;20037;-74
2021/03/09 03:54:54;;;;;;;12.75;9.60;;;15.50;51.10;;;;;;5052305;28;20076;-74
2021/03/09 03:57:43;;;;;;;13.52;9.55;;;15.50;51.20;;;;;;5051784;28;20078;-74
2021/03/09 04:00:11;;;;;;;13.88;9.43;;;15.50;51.20;;;;;;5051179;28;20446;-74
2021/03/09 04:02:37;;;;;;;13.30;9.40;;;15.50;51.20;;;;;;5051691;28;20119;-74
2021/03/09 04:05:07;;;;;;;13.18;9.45;;;15.50;51.20;;;;;;5033461;28;20025;-74
2021/03/09 04:07:34;;;;;;;13.00;9.20;;;15.50;51.20;;;;;;5052273;28;20449;-74
2021/03/09 04:10:00;;;;;;;14.10;9.10;;;15.40;51.10;;;;;;5051063;28;20037;-75
2021/03/09 04:12:28;;;;;;;13.85;10.05;;;15.50;51.20;;;;;;5051407;28;20028;-74
2021/03/09 04:14:58;;;;;;;12.93;9.75;;;15.50;51.80;;;;;;5051608;28;20405;-75
2021/03/09 04:17:24;;;;;;;12.85;9.10;;;15.40;51.20;;;;;;5051712;28;20025;-75
2021/03/09 04:19:52;;;;;;;11.63;8.90;;;15.40;51.30;;;;;;5051202;28;20025;-74
2021/03/09 04:22:18;;;;;;;13.48;8.98;;;15.40;51.30;;;;;;5051707;28;20075;-74
2021/03/09 04:24:46;;;;;;;12.80;9.18;;;15.40;51.30;;;;;;5051694;28;20017;-74
2021/03/09 04:27:21;;;;;;;12.98;9.77;;;15.40;51.90;;;;;;5051395;28;20025;-74
2021/03/09 04:29:58;;;;;;;11.05;8.60;;;15.40;51.40;;;;;;5049810;28;20090;-74
2021/03/09 04:32:25;;;;;;;11.75;9.05;;;15.40;51.40;;;;;;5051186;28;20037;-73
2021/03/09 04:34:51;;;;;;;11.93;8.80;;;15.40;51.40;;;;;;5051294;28;20031;-74
2021/03/09 04:37:18;;;;;;;11.68;9.23;;;15.40;51.30;;;;;;5050639;28;20484;-74
2021/03/09 04:39:44;;;;;;;12.57;8.25;;;15.40;51.80;;;;;;5050872;28;20090;-74
2021/03/09 04:42:11;;;;;;;10.68;8.38;;;15.40;51.30;;;;;;5051183;28;20029;-75
2021/03/09 04:44:38;;;;;;;11.30;8.70;;;15.30;51.20;;;;;;5032903;28;20025;-74
2021/03/09 04:47:04;;;;;;;10.63;8.52;;;15.30;51.30;;;;;;5032986;28;20392;-73
2021/03/09 04:49:35;;;;;;;12.52;8.02;;;15.30;51.30;;;;;;5050463;28;20033;-74
2021/03/09 04:52:01;;;;;;;12.98;8.40;;;15.30;51.30;;;;;;5050905;28;20037;-73
2021/03/09 04:54:27;;;;;;;10.77;7.75;;;15.30;51.30;;;;;;5051419;28;20461;-73
2021/03/09 04:56:53;;;;;;;12.27;8.45;;;15.30;51.30;;;;;;5051261;28;20032;-74
2021/03/09 04:59:18;;;;;;;11.43;8.50;;;15.30;51.30;;;;;;5050711;28;20036;-75
2021/03/09 05:01:45;;;;;;;12.45;7.63;;;15.30;51.30;;;;;;5050384;28;20112;-74
2021/03/09 05:04:11;;;;;;;11.75;8.25;;;15.30;51.30;;;;;;5051180;28;20480;-73
2021/03/09 05:06:36;;;;;;;10.93;8.27;;;15.30;51.30;;;;;;5051179;28;20025;-73
2021/03/09 05:09:03;;;;;;;10.75;7.93;;;15.30;51.30;;;;;;5050846;28;20071;-74
2021/03/09 05:11:29;;;;;;;9.75;7.47;;;15.20;51.30;;;;;;5050319;28;20071;-73
2021/03/09 05:13:56;;;;;;;11.65;7.38;;;15.20;51.40;;;;;;5051178;28;20029;-73
2021/03/09 05:16:22;;;;;;;10.10;6.80;;;15.30;51.50;;;;;;5049625;28;20028;-73
2021/03/09 05:18:48;;;;;;;10.20;7.75;;;15.20;51.40;;;;;;5050783;28;20554;-73
2021/03/09 05:21:13;;;;;;;12.15;8.02;;;15.20;51.40;;;;;;5050441;28;20112;-73
2021/03/09 05:23:39;;;;;;;9.45;7.05;;;15.20;51.50;;;;;;5046182;28;20121;-73
2021/03/09 05:26:05;;;;;;;10.98;7.88;;;15.20;51.40;;;;;;5031135;28;20519;-74
2021/03/09 05:28:30;;;;;;;11.27;7.35;;;15.20;51.40;;;;;;5032376;28;20116;-74
2021/03/09 05:30:56;;;;;;;9.27;6.80;;;15.20;51.50;;;;;;5050985;28;20027;-74
2021/03/09 05:33:22;;;;;;;10.13;7.57;;;15.20;51.50;;;;;;5050364;28;20040;-74
2021/03/09 05:35:47;;;;;;;11.55;7.18;;;15.20;51.50;;;;;;5050261;28;20025;-74
2021/03/09 05:38:13;;;;;;;9.57;7.40;;;15.20;51.40;;;;;;5051100;28;20433;-74
2021/03/09 05:40:39;;;;;;;11.88;7.20;;;15.20;51.40;;;;;;5049512;28;20116;-73
2021/03/09 05:43:05;;;;;;;10.75;8.13;;;15.10;51.50;;;;;;5051081;28;20029;-73
2021/03/09 05:45:31;;;;;;;8.95;6.93;;;15.10;51.40;;;;;;5054563;28;20372;-73
2021/03/09 05:47:58;;;;;;;10.15;7.65;;;15.10;51.40;;;;;;5054204;28;20036;-73
2021/03/09 05:50:23;;;;;;;8.43;6.38;;;15.10;51.40;;;;;;5054332;28;20029;-73
2021/03/09 05:52:49;;;;;;;11.63;7.28;;;15.10;51.40;;;;;;5053831;28;20511;-73
2021/03/09 05:55:15;;;;;;;9.75;6.32;;;15.10;51.40;;;;;;5054276;28;20064;-73
2021/03/09 05:57:41;;;;;;;10.30;7.65;;;15.10;51.40;;;;;;5053929;28;20032;-73
2021/03/09 06:00:08;;;;;;;11.05;6.82;;;15.10;51.30;;;;;;5053482;28;20045;-72
2021/03/09 06:02:35;;;;;;;10.07;6.88;;;15.10;51.40;;;;;;5053211;28;20021;-73
2021/03/09 06:05:03;;;;;;;10.00;7.22;;;15.10;51.30;;;;;;5036017;28;20029;-73
2021/03/09 06:07:29;;;;;;;11.48;6.97;;;15.10;51.40;;;;;;5054470;28;20112;-74
2021/03/09 06:09:54;;;;;;;11.52;6.75;;;15.10;52.00;;;;;;5053586;28;20529;-75
2021/03/09 06:12:27;;;;;;;9.65;6.78;;;15.10;51.40;;;;;;5053825;28;20078;-75
2021/03/09 06:14:55;;;;;;;8.65;6.65;;;15.10;51.40;;;;;;5053628;28;20013;-75
2021/03/09 06:17:25;;;;;;;10.02;6.82;;;15.00;51.40;;;;;;5053196;28;20059;-73
2021/03/09 06:19:50;;;;;;;8.50;6.65;;;15.00;51.40;;;;;;5052152;28;20032;-74
2021/03/09 06:22:18;;;;;;;7.95;6.35;;;15.00;51.30;;;;;;5053432;28;20457;-74
2021/03/09 06:24:45;;;;;;;9.90;6.65;;;15.00;51.40;;;;;;5053706;28;20530;-73
2021/03/09 06:27:28;;;;;;;8.85;6.13;;;15.00;51.40;;;;;;5053921;28;20032;-73
2021/03/09 06:29:55;;;;;;;10.57;7.28;;;15.00;51.90;;;;;;5052657;28;20108;-74
2021/03/09 06:32:21;;;;;;;9.55;6.88;;;15.00;51.40;;;;;;5049482;28;20051;-73
2021/03/09 06:34:48;;;;;;;10.45;7.40;;;15.00;52.00;;;;;;5051968;28;20037;-73
2021/03/09 06:37:21;;;;;;;9.25;6.82;;;15.00;51.40;;;;;;5052475;28;20027;-73
2021/03/09 06:40:05;;;;;;;10.40;7.00;;;15.00;51.40;;;;;;5053622;28;20040;-73
2021/03/09 06:42:31;;;;;;;9.52;6.05;;;15.10;51.30;;;;;;5043563;28;20028;-73
2021/03/09 06:45:18;;;;;;;9.65;6.25;;;15.20;51.20;;;;;;5051382;28;20033;-73
2021/03/09 06:47:46;;;;;;;9.70;6.32;;;15.30;51.10;;;;;;5044866;28;20404;-73
2021/03/09 06:50:13;;;;;;;9.05;6.38;;;15.40;51.10;;;;;;5050758;28;20062;-73
2021/03/09 06:52:41;;;;;;;9.27;5.95;;;15.50;51.00;;;;;;5050205;28;20107;-72
2021/03/09 06:55:09;;;;;;;11.40;6.65;;;15.60;51.00;;;;;;5048713;28;20032;-73
2021/03/09 06:57:35;;;;;;;7.90;5.20;;;15.70;51.30;;;;;;5051709;28;20029;-75
2021/03/09 07:00:05;;;;;;;14.45;5.60;;;15.90;51.20;;;;;;5052774;28;20128;-77
2021/03/09 07:02:31;;;;;;;8.40;5.07;;;16.10;51.30;;;;;;5051843;28;20029;-74
2021/03/09 07:05:10;;;;;;;6.55;4.40;;;16.50;50.90;;;;;;5052253;28;20025;-75
2021/03/09 07:07:37;;;;;;;7.97;5.05;;;16.60;50.70;;;;;;5049170;28;20546;-77
2021/03/09 07:10:07;;;;;;;10.02;4.88;;;16.80;50.90;;;;;;5051451;28;20025;-75
2021/03/09 07:12:35;;;;;;;13.30;6.63;;;16.90;50.90;;;;;;5051033;28;20021;-73
2021/03/09 07:15:01;;;;;;;9.93;6.28;;;16.90;51.10;;;;;;5052243;28;20557;-78
2021/03/09 07:17:31;;;;;;;11.18;6.35;;;17.00;51.70;;;;;;5051887;28;20354;-76
2021/03/09 07:19:58;;;;;;;12.20;7.03;;;17.10;51.90;;;;;;5051212;28;20036;-74
2021/03/09 07:22:25;;;;;;;11.75;7.28;;;17.20;51.40;;;;;;5051336;28;20505;-74
2021/03/09 07:25:17;;;;;;;9.43;5.50;;;17.30;51.30;;;;;;5047403;28;20151;-76
2021/03/09 07:28:01;;;;;;;7.82;5.38;;;17.50;51.40;;;;;;5040309;28;20112;-78
2021/03/09 07:30:29;;;;;;;8.57;6.55;;;17.60;51.20;;;;;;5050380;28;20512;-71
2021/03/09 07:32:56;;;;;;;15.13;6.47;;;17.70;51.20;;;;;;5051470;28;20170;-73
2021/03/09 07:35:23;;;;;;;10.10;7.57;;;17.70;51.20;;;;;;5050983;28;20013;-73
2021/03/09 07:37:53;;;;;;;12.43;6.15;;;17.80;51.30;;;;;;5051639;28;20029;-71
2021/03/09 07:40:31;;;;;;;9.15;6.03;;;17.80;51.10;;;;;;5048757;28;20041;-73
2021/03/09 07:42:56;;;;;;;10.68;6.30;;;17.80;51.00;;;;;;5050219;28;20029;-73
2021/03/09 07:45:38;;;;;;;11.25;6.35;;;17.80;50.90;;;;;;5049495;28;20070;-77
2021/03/09 07:48:18;;;;;;;9.65;6.07;;;17.80;50.80;;;;;;5051875;28;20047;-74
2021/03/09 07:50:45;;;;;;;12.30;6.75;;;17.80;50.90;;;;;;5051660;28;20021;-73
2021/03/09 07:53:13;;;;;;;9.18;6.07;;;17.80;50.80;;;;;;5050632;28;20054;-74
2021/03/09 07:55:40;;;;;;;11.05;7.82;;;17.70;50.70;;;;;;5051201;28;20028;-73
2021/03/09 07:58:18;;;;;;;9.18;6.30;;;17.70;51.20;;;;;;5051832;28;20566;-73
2021/03/09 08:00:47;;;;;;;16.77;8.07;;;17.70;50.70;;;;;;5051436;28;20064;-73
2021/03/09 08:03:28;;;;;;;12.18;7.00;;;17.70;50.70;;;;;;5051208;28;20397;-73
2021/03/09 08:06:14;;;;;;;12.48;7.40;;;17.70;50.70;;;;;;5050883;28;20369;-73
2021/03/09 08:08:42;;;;;;;16.77;7.25;;;17.70;50.80;;;;;;5051622;28;20029;-73
2021/03/09 08:11:28;;;;;;;11.13;7.50;;;17.60;50.80;;;;;;5050091;28;20033;-73
2021/03/09 08:14:03;;;;;;;9.40;6.78;;;17.60;50.70;;;;;;5049320;28;20488;-72
2021/03/09 08:16:32;;;;;;;10.30;7.43;;;17.50;50.70;;;;;;5050347;28;20037;-72
2021/03/09 08:19:04;;;;;;;12.18;6.32;;;17.50;50.60;;;;;;5051213;28;20036;-73
2021/03/09 08:21:54;;;;;;;9.73;6.45;;;17.50;50.50;;;;;;5037581;28;20094;-73
2021/03/09 08:24:40;;;;;;;11.48;6.88;;;17.40;51.00;;;;;;5044673;28;20037;-73
2021/03/09 08:27:28;;;;;;;14.57;6.93;;;17.50;50.50;;;;;;5051318;28;20021;-73
2021/03/09 08:30:37;;;;;;;11.20;6.25;;;17.40;50.40;;;;;;5051427;28;20059;-72
2021/03/09 08:33:22;;;;;;;12.43;6.28;;;17.40;50.40;;;;;;5047117;28;20045;-72
2021/03/09 08:35:48;;;;;;;10.23;6.53;;;17.40;50.50;;;;;;5049671;28;20021;-73
2021/03/09 08:38:18;;;;;;;9.30;6.45;;;17.40;50.70;;;;;;5051732;28;20039;-73
2021/03/09 08:41:05;;;;;;;7.85;5.80;;;17.30;50.80;;;;;;5049427;28;20024;-72
2021/03/09 08:43:30;;;;;;;10.82;6.55;;;17.30;50.90;;;;;;5049129;28;20037;-73
2021/03/09 08:45:58;;;;;;;9.55;6.03;;;17.30;51.10;;;;;;5050934;28;20496;-73
2021/03/09 08:48:53;;;;;;;10.93;5.90;;;17.20;50.90;;;;;;5049968;28;20407;-73
2021/03/09 08:51:43;;;;;;;10.98;6.13;;;17.20;50.90;;;;;;5033417;28;20170;-72
2021/03/09 08:54:29;;;;;;;11.45;7.03;;;17.20;51.10;;;;;;5042421;28;20033;-72
2021/03/09 08:56:56;;;;;;;8.77;6.32;;;17.30;50.90;;;;;;5021301;28;20053;-73
2021/03/09 08:59:24;;;;;;;8.30;5.43;;;17.30;50.70;;;;;;5050703;28;20029;-73
2021/03/09 09:01:50;;;;;;;8.55;6.10;;;17.20;50.60;;;;;;5049592;28;20029;-73
2021/03/09 09:04:17;;;;;;;8.45;6.28;;;17.20;50.60;;;;;;5050406;28;20082;-72
2021/03/09 09:06:45;;;;;;;10.25;6.68;;;17.20;50.70;;;;;;5050771;28;20550;-72
2021/03/09 09:09:11;;;;;;;9.93;6.15;;;17.20;50.70;;;;;;5050586;28;20497;-73
2021/03/09 09:11:37;;;;;;;9.52;6.43;;;17.10;50.70;;;;;;5051618;28;20029;-73
2021/03/09 09:14:16;;;;;;;9.05;5.97;;;17.10;50.70;;;;;;5050613;28;20048;-72
2021/03/09 09:16:43;;;;;;;10.95;5.95;;;17.10;50.70;;;;;;5049899;28;20028;-73
2021/03/09 09:19:08;;;;;;;8.38;5.78;;;17.10;50.70;;;;;;5052854;28;20051;-73
2021/03/09 09:21:54;;;;;;;11.00;6.88;;;17.10;50.70;;;;;;5054917;28;20488;-73
2021/03/09 09:24:21;;;;;;;10.05;5.93;;;17.00;50.70;;;;;;5053201;28;20044;-72
2021/03/09 09:26:58;;;;;;;9.25;6.50;;;17.00;50.70;;;;;;5054250;28;20040;-72
2021/03/09 09:29:24;;;;;;;9.38;6.00;;;17.00;50.70;;;;;;5035259;28;20033;-73
2021/03/09 09:32:00;;;;;;;8.93;5.65;;;17.00;50.70;;;;;;5045829;28;20044;-72
2021/03/09 09:34:37;;;;;;;9.38;5.95;;;17.00;50.60;;;;;;5053401;28;20033;-72
2021/03/09 09:37:16;;;;;;;7.65;5.75;;;17.00;50.60;;;;;;5054386;28;20025;-72
2021/03/09 09:39:42;;;;;;;8.95;5.57;;;16.90;50.60;;;;;;5037023;28;20112;-72
2021/03/09 09:42:16;;;;;;;7.97;5.85;;;16.90;50.60;;;;;;5052107;28;20105;-72
2021/03/09 09:44:42;;;;;;;7.70;5.28;;;17.00;50.60;;;;;;5053949;28;20025;-72
2021/03/09 09:47:09;;;;;;;9.48;5.47;;;17.00;50.70;;;;;;5052558;28;20484;-73
2021/03/09 09:49:41;;;;;;;7.93;5.82;;;16.90;50.60;;;;;;5056673;28;20029;-73
2021/03/09 09:52:11;;;;;;;7.15;5.00;;;16.90;50.60;;;;;;5054251;28;20112;-73
2021/03/09 09:54:37;;;;;;;7.72;5.60;;;16.90;50.50;;;;;;5054302;28;20019;-73
2021/03/09 09:57:10;;;;;;;9.05;5.20;;;16.80;50.50;;;;;;5053238;28;20025;-73
2021/03/09 09:59:36;;;;;;;8.57;5.72;;;16.80;50.60;;;;;;5053385;28;20030;-73
2021/03/09 10:02:14;;;;;;;8.25;5.32;;;16.80;50.60;;;;;;5052722;28;20036;-73
2021/03/09 10:04:40;;;;;;;7.88;5.28;;;16.80;50.60;;;;;;5052632;28;20037;-72
2021/03/09 10:07:17;;;;;;;8.57;4.88;;;16.70;50.60;;;;;;5054435;28;20606;-72
2021/03/09 10:10:07;;;;;;;8.00;5.97;;;16.70;50.70;;;;;;5054400;28;20025;-72
2021/03/09 10:12:34;;;;;;;10.93;5.90;;;16.70;50.70;;;;;;5053489;28;20369;-73
2021/03/09 10:15:00;;;;;;;7.88;5.38;;;16.70;50.60;;;;;;5035708;28;20024;-72
2021/03/09 10:17:27;;;;;;;8.68;5.05;;;16.70;50.60;;;;;;5052012;28;20408;-73
2021/03/09 10:19:54;;;;;;;8.70;5.35;;;16.70;50.70;;;;;;5053861;28;20061;-73
2021/03/09 10:22:24;;;;;;;6.20;4.63;;;16.70;50.70;;;;;;5053158;28;20550;-73
2021/03/09 10:24:50;;;;;;;8.52;5.00;;;16.70;50.60;;;;;;5054071;28;20021;-72
2021/03/09 10:27:23;;;;;;;7.13;5.43;;;16.70;50.60;;;;;;5053510;28;20056;-73
2021/03/09 10:29:55;;;;;;;8.10;5.32;;;16.70;50.70;;;;;;5052629;28;20024;-73
2021/03/09 10:32:21;;;;;;;9.10;5.75;;;16.60;50.60;;;;;;5054031;28;20043;-72
2021/03/09 10:34:49;;;;;;;7.65;5.40;;;16.70;50.70;;;;;;5050590;28;20095;-73
2021/03/09 10:37:16;;;;;;;11.32;5.50;;;16.60;50.70;;;;;;5053568;28;20488;-72
2021/03/09 10:39:54;;;;;;;9.13;5.18;;;16.60;50.70;;;;;;5051731;28;20029;-72
2021/03/09 10:42:27;;;;;;;7.70;4.88;;;16.60;50.60;;;;;;5053620;28;20082;-73
2021/03/09 10:44:54;;;;;;;6.93;5.18;;;16.70;50.50;;;;;;5052723;28;20032;-73
2021/03/09 10:47:19;;;;;;;8.07;5.07;;;16.70;50.50;;;;;;5050128;28;20461;-76
2021/03/09 10:49:45;;;;;;;6.43;4.53;;;16.70;50.50;;;;;;5051295;28;20534;-75
2021/03/09 10:52:11;;;;;;;6.53;4.43;;;16.70;50.40;;;;;;5052903;28;20032;-75
2021/03/09 10:54:37;;;;;;;6.97;4.78;;;16.70;50.30;;;;;;5052826;28;20029;-76
2021/03/09 10:57:08;;;;;;;7.32;4.93;;;16.80;50.40;;;;;;5066639;28;20064;-75
2021/03/09 10:59:34;;;;;;;9.93;4.72;;;16.70;50.40;;;;;;5052475;28;20021;-76
2021/03/09 11:02:00;;;;;;;7.78;4.60;;;16.80;50.40;;;;;;5053277;28;20035;-75
2021/03/09 11:04:26;;;;;;;7.68;4.38;;;16.80;50.20;;;;;;5052181;28;20036;-75
2021/03/09 11:06:52;;;;;;;7.57;3.92;;;16.90;50.20;;;;;;5052351;28;20064;-75
2021/03/09 11:09:18;;;;;;;5.68;3.78;;;17.00;50.20;;;;;;5052729;28;20032;-76
2021/03/09 11:11:44;;;;;;;4.82;3.42;;;17.00;50.20;;;;;;5053391;28;20396;-73
2021/03/09 11:14:10;;;;;;;5.00;3.88;;;17.10;50.10;;;;;;5051664;28;20039;-73
2021/03/09 11:16:36;;;;;;;5.47;3.63;;;17.10;50.60;;;;;;5053819;28;20028;-76
2021/03/09 11:19:02;;;;;;;5.60;3.53;;;17.10;50.10;;;;;;5049859;28;20139;-74
2021/03/09 11:21:28;;;;;;;5.75;3.47;;;17.20;50.10;;;;;;5051165;28;20496;-73
2021/03/09 11:23:54;;;;;;;5.22;3.50;;;17.30;50.10;;;;;;5049061;28;20017;-73
2021/03/09 11:26:25;;;;;;;6.68;3.42;;;17.30;49.90;;;;;;5049638;28;20033;-73
2021/03/09 11:28:52;;;;;;;6.35;4.15;;;17.40;50.00;;;;;;5051161;28;20024;-81
2021/03/09 11:31:19;;;;;;;4.45;3.10;;;17.50;49.80;;;;;;5052135;28;20029;-73
2021/03/09 11:33:45;;;;;;;6.65;3.25;;;17.60;49.80;;;;;;5049977;28;20039;-71
2021/03/09 11:36:12;;;;;;;7.43;3.45;;;17.70;49.80;;;;;;5046735;28;20112;-73
2021/03/09 11:38:45;;;;;;;9.85;3.25;;;17.80;49.70;;;;;;5050440;28;20555;-73
2021/03/09 11:41:12;;;;;;;5.32;2.92;;;17.90;50.00;;;;;;5051064;28;20034;-70
2021/03/09 11:43:38;;;;;;;4.03;2.78;;;18.00;49.50;;;;;;5053412;28;20088;-71
2021/03/09 11:46:04;;;;;;;7.68;2.75;;;18.20;49.40;;;;;;5051413;28;20033;-73
2021/03/09 11:48:30;;;;;;;6.10;3.03;;;18.30;49.10;;;;;;5051764;28;20029;-73
2021/03/09 11:50:56;;;;;;;6.78;2.97;;;18.50;49.00;;;;;;5048325;28;20040;-72
2021/03/09 11:53:22;;;;;;;4.15;3.05;;;18.60;48.90;;;;;;5049062;28;20096;-72
2021/03/09 11:55:48;;;;;;;4.95;2.45;;;18.70;48.70;;;;;;5051733;28;20096;-73
2021/03/09 11:58:13;;;;;;;5.35;2.97;;;18.80;49.20;;;;;;5050263;28;20043;-73
2021/03/09 12:00:39;;;;;;;3.97;2.45;;;18.90;48.60;;;;;;5047375;28;20040;-73
2021/03/09 12:03:05;;;;;;;6.57;2.53;;;18.90;48.50;;;;;;5049476;28;20108;-73
2021/03/09 12:05:30;;;;;;;4.68;2.60;;;19.00;48.50;;;;;;5050873;28;20027;-72
2021/03/09 12:07:56;;;;;;;9.77;2.85;;;19.00;48.40;;;;;;5050933;28;20396;-72
2021/03/09 12:10:22;;;;;;;3.92;2.72;;;19.10;48.70;;;;;;5051687;28;20017;-73
2021/03/09 12:12:47;;;;;;;7.70;3.10;;;19.20;48.30;;;;;;5051053;28;20052;-73
2021/03/09 12:15:13;;;;;;;6.90;3.40;;;19.20;48.30;;;;;;5051224;28;20029;-72
2021/03/09 12:17:39;;;;;;;7.60;3.45;;;19.20;48.20;;;;;;5050752;28;20101;-72
2021/03/09 12:20:06;;;;;;;7.97;3.28;;;19.20;48.20;;;;;;5050658;28;20036;-73
2021/03/09 12:22:32;;;;;;;4.70;3.08;;;19.30;48.40;;;;;;5050476;28;20028;-73
2021/03/09 12:24:57;;;;;;;4.00;2.92;;;19.30;48.40;;;;;;5051809;28;20029;-73
2021/03/09 12:27:23;;;;;;;5.57;2.97;;;19.30;48.50;;;;;;5050826;28;20092;-72
2021/03/09 12:29:49;;;;;;;3.85;3.03;;;19.40;48.50;;;;;;5051999;28;20106;-72
2021/03/09 12:32:14;;;;;;;6.72;3.60;;;19.40;48.70;;;;;;5050744;28;20514;-73
2021/03/09 12:34:40;;;;;;;7.28;3.00;;;19.40;48.70;;;;;;5045731;28;20021;-73
2021/03/09 12:37:06;;;;;;;8.40;4.25;;;19.50;49.10;;;;;;5050802;28;20020;-74
2021/03/09 12:39:32;;;;;;;30.58;13.02;;;19.70;49.10;;;;;;5050168;28;20044;-73
2021/03/09 12:41:59;;;;;;;23.90;11.20;;;19.80;50.70;;;;;;5051221;28;20131;-72
2021/03/09 12:44:25;;;;;;;18.77;8.77;;;20.00;50.80;;;;;;5051641;28;20021;-73
2021/03/09 12:46:50;;;;;;;19.55;8.38;;;20.00;50.90;;;;;;5051102;28;20162;-76
2021/03/09 12:49:16;;;;;;;17.27;7.35;;;20.10;51.10;;;;;;5049717;28;20148;-73